createdAt,value
2024-02-23T00:01:54.044Z,19.90
2024-02-23T00:04:21.667Z,19.80
2024-02-23T00:06:49.344Z,19.90
2024-02-23T00:09:15.979Z,19.90
2024-02-23T00:11:45.822Z,19.80
2024-02-23T00:14:14.156Z,19.90
2024-02-23T00:16:41.926Z,19.90
2024-02-23T00:19:09.592Z,19.90
2024-02-23T00:21:37.215Z,19.90
2024-02-23T00:24:04.914Z,19.90
2024-02-23T00:26:32.537Z,19.90
2024-02-23T00:29:00.167Z,19.90
2024-02-23T00:31:27.875Z,19.90
2024-02-23T00:33:55.446Z,19.90
2024-02-23T00:36:23.017Z,19.90
2024-02-23T00:38:50.584Z,19.90
2024-02-23T00:41:18.170Z,19.90
2024-02-23T00:43:45.800Z,19.90
2024-02-23T00:46:15.428Z,19.90
2024-02-23T00:48:44.169Z,19.90
2024-02-23T00:51:11.774Z,19.90
2024-02-23T00:53:39.341Z,19.90
2024-02-23T00:56:06.942Z,19.90
2024-02-23T00:58:34.613Z,19.90
2024-02-23T01:01:02.292Z,19.90
2024-02-23T01:03:30.068Z,19.90
2024-02-23T01:05:57.777Z,19.90
2024-02-23T01:08:25.456Z,19.90
2024-02-23T01:10:53.148Z,19.90
2024-02-23T01:13:20.758Z,19.90
2024-02-23T01:15:48.381Z,19.90
2024-02-23T01:18:15.998Z,19.90
2024-02-23T01:20:43.598Z,19.90
2024-02-23T01:23:11.174Z,19.90
2024-02-23T01:25:38.751Z,19.90
2024-02-23T01:28:06.415Z,19.80
2024-02-23T01:30:33.996Z,19.90
2024-02-23T01:33:01.827Z,19.90
2024-02-23T01:35:30.295Z,19.90
2024-02-23T01:37:57.895Z,19.90
2024-02-23T01:40:25.602Z,19.90
2024-02-23T01:42:53.160Z,19.90
2024-02-23T01:45:20.822Z,19.80
2024-02-23T01:47:48.372Z,19.90
2024-02-23T01:50:16.688Z,19.90
2024-02-23T01:52:44.349Z,19.80
2024-02-23T01:55:11.916Z,19.80
2024-02-23T01:57:49.519Z,19.80
2024-02-23T02:00:18.165Z,19.80
2024-02-23T02:02:45.769Z,19.80
2024-02-23T02:05:13.573Z,19.80
2024-02-23T02:07:41.155Z,19.80
2024-02-23T02:10:08.815Z,19.80
2024-02-23T02:12:36.369Z,19.90
2024-02-23T02:15:03.937Z,19.90
2024-02-23T02:17:34.164Z,19.80
2024-02-23T02:20:05.401Z,19.80
2024-02-23T02:22:33.070Z,19.80
2024-02-23T02:25:00.651Z,19.80
2024-02-23T02:27:28.301Z,19.80
2024-02-23T02:29:55.881Z,19.80
2024-02-23T02:32:23.480Z,19.80
2024-02-23T02:34:51.154Z,19.80
2024-02-23T02:37:18.751Z,19.80
2024-02-23T02:39:46.297Z,19.80
2024-02-23T02:42:13.885Z,19.80
2024-02-23T02:44:41.510Z,19.80
2024-02-23T02:47:09.221Z,19.80
2024-02-23T02:49:36.834Z,19.80
2024-02-23T02:52:04.505Z,19.80
2024-02-23T02:54:32.190Z,19.80
2024-02-23T02:56:59.849Z,19.80
2024-02-23T02:59:28.734Z,19.80
2024-02-23T03:01:58.329Z,19.80
2024-02-23T03:04:26.029Z,19.80
2024-02-23T03:06:53.670Z,19.70
2024-02-23T03:09:21.243Z,19.70
2024-02-23T03:11:49.077Z,19.70
2024-02-23T03:14:19.371Z,19.70
2024-02-23T03:16:48.834Z,19.70
2024-02-23T03:19:16.867Z,19.70
2024-02-23T03:21:44.466Z,19.70
2024-02-23T03:24:12.093Z,19.70
2024-02-23T03:26:40.043Z,19.70
2024-02-23T03:29:07.731Z,19.70
2024-02-23T03:31:35.317Z,19.70
2024-02-23T03:34:02.914Z,19.70
2024-02-23T03:36:30.511Z,19.70
2024-02-23T03:38:58.413Z,19.70
2024-02-23T03:41:26.114Z,19.70
2024-02-23T03:43:53.834Z,19.70
2024-02-23T03:46:22.470Z,19.70
2024-02-23T03:48:50.545Z,19.70
2024-02-23T03:51:18.169Z,19.70
2024-02-23T03:53:45.789Z,19.70
2024-02-23T03:56:13.416Z,19.70
2024-02-23T03:58:41.054Z,19.70
2024-02-23T04:01:08.663Z,19.70
2024-02-23T04:03:36.631Z,19.70
2024-02-23T04:06:04.342Z,19.70
2024-02-23T04:08:32.624Z,19.60
2024-02-23T04:11:00.376Z,19.60
2024-02-23T04:13:27.974Z,19.70
2024-02-23T04:15:55.601Z,19.60
2024-02-23T04:18:23.281Z,19.60
2024-02-23T04:20:50.843Z,19.60
2024-02-23T04:23:18.500Z,19.60
2024-02-23T04:25:46.087Z,19.60
2024-02-23T04:28:13.760Z,19.60
2024-02-23T04:30:41.329Z,19.60
2024-02-23T04:33:08.990Z,19.60
2024-02-23T04:35:38.035Z,19.60
2024-02-23T04:38:05.769Z,19.60
2024-02-23T04:40:33.453Z,19.60
2024-02-23T04:43:01.324Z,19.60
2024-02-23T04:45:28.946Z,19.50
2024-02-23T04:47:56.584Z,19.50
2024-02-23T04:50:24.490Z,19.50
2024-02-23T04:52:52.264Z,19.50
2024-02-23T04:55:19.918Z,19.50
2024-02-23T04:57:47.467Z,19.50
2024-02-23T05:00:15.045Z,19.50
2024-02-23T05:02:42.617Z,19.50
2024-02-23T05:05:10.261Z,19.50
2024-02-23T05:07:38.092Z,19.50
2024-02-23T05:10:06.032Z,19.50
2024-02-23T05:12:33.630Z,19.50
2024-02-23T05:15:01.262Z,19.50
2024-02-23T05:17:28.927Z,19.50
2024-02-23T05:19:56.660Z,19.40
2024-02-23T05:22:24.220Z,19.40
2024-02-23T05:24:51.785Z,19.50
2024-02-23T05:27:19.380Z,19.50
2024-02-23T05:29:46.929Z,19.40
2024-02-23T05:32:14.616Z,19.50
2024-02-23T05:34:42.277Z,19.50
2024-02-23T05:37:09.900Z,19.50
2024-02-23T05:39:38.549Z,19.50
2024-02-23T05:42:06.098Z,19.50
2024-02-23T05:44:33.730Z,19.50
2024-02-23T05:47:01.358Z,19.50
2024-02-23T05:49:29.013Z,19.50
2024-02-23T05:51:57.209Z,19.50
2024-02-23T05:54:24.783Z,19.50
2024-02-23T05:56:52.334Z,19.50
2024-02-23T05:59:19.957Z,19.50
2024-02-23T06:01:47.492Z,19.50
2024-02-23T06:04:15.062Z,19.50
2024-02-23T06:06:42.795Z,19.50
2024-02-23T06:09:10.916Z,19.50
2024-02-23T06:11:38.707Z,19.50
2024-02-23T06:14:06.433Z,19.50
2024-02-23T06:16:34.004Z,19.50
2024-02-23T06:19:01.814Z,19.50
2024-02-23T06:21:29.400Z,19.50
2024-02-23T06:23:56.976Z,19.50
2024-02-23T06:26:24.583Z,19.40
2024-02-23T06:28:52.333Z,19.50
2024-02-23T06:31:20.014Z,19.40
2024-02-23T06:33:50.127Z,19.40
2024-02-23T06:36:18.002Z,19.40
2024-02-23T06:38:45.594Z,19.40
2024-02-23T06:41:13.238Z,19.40
2024-02-23T06:43:40.833Z,19.40
2024-02-23T06:46:08.469Z,19.40
2024-02-23T06:48:36.245Z,19.40
2024-02-23T06:51:04.399Z,19.40
2024-02-23T06:53:32.020Z,19.30
2024-02-23T06:56:00.253Z,19.30
2024-02-23T06:58:27.959Z,19.40
2024-02-23T07:00:55.565Z,19.40
2024-02-23T07:03:23.203Z,19.40
2024-02-23T07:05:51.621Z,19.30
2024-02-23T07:08:19.480Z,19.30
2024-02-23T07:10:47.283Z,19.40
2024-02-23T07:13:14.861Z,19.30
2024-02-23T07:15:42.443Z,19.30
2024-02-23T07:18:10.385Z,19.40
2024-02-23T07:20:38.347Z,19.30
2024-02-23T07:23:06.357Z,19.30
2024-02-23T07:25:33.998Z,19.40
2024-02-23T07:28:01.560Z,19.30
2024-02-23T07:30:29.113Z,19.40
2024-02-23T07:32:56.797Z,19.40
2024-02-23T07:35:24.428Z,19.40
2024-02-23T07:37:52.087Z,19.40
2024-02-23T07:40:22.414Z,19.40
2024-02-23T07:42:50.407Z,19.40
2024-02-23T07:45:18.029Z,19.40
2024-02-23T07:47:45.658Z,19.40
2024-02-23T07:50:14.082Z,19.40
2024-02-23T07:52:42.041Z,19.40
2024-02-23T07:55:09.685Z,19.30
2024-02-23T07:57:37.747Z,19.30
2024-02-23T08:00:05.595Z,19.40
2024-02-23T08:02:33.284Z,19.40
2024-02-23T08:05:02.126Z,19.30
2024-02-23T08:07:31.892Z,19.40
2024-02-23T08:09:59.554Z,19.40
2024-02-23T08:12:27.252Z,19.40
2024-02-23T08:14:55.237Z,19.40
2024-02-23T08:17:22.916Z,19.40
2024-02-23T08:19:50.568Z,19.40
2024-02-23T08:22:18.215Z,19.40
2024-02-23T08:24:46.063Z,19.40
2024-02-23T08:27:13.815Z,19.40
2024-02-23T08:29:42.573Z,19.40
2024-02-23T08:32:10.278Z,19.40
2024-02-23T08:34:37.875Z,19.40
2024-02-23T08:37:05.452Z,19.40
2024-02-23T08:39:33.061Z,19.40
2024-02-23T08:42:00.621Z,19.50
2024-02-23T08:44:28.293Z,19.50
2024-02-23T08:46:55.854Z,19.40
2024-02-23T08:49:23.549Z,19.40
2024-02-23T08:54:18.752Z,19.50
2024-02-23T08:56:47.287Z,19.50
2024-02-23T09:01:42.484Z,19.50
2024-02-23T09:04:10.075Z,19.50
2024-02-23T09:06:39.598Z,19.50
2024-02-23T09:09:07.904Z,19.50
2024-02-23T09:11:35.707Z,19.50
2024-02-23T09:14:03.401Z,19.50
2024-02-23T09:16:30.971Z,19.50
2024-02-23T09:18:58.552Z,19.50
2024-02-23T09:21:26.121Z,19.60
2024-02-23T09:23:53.690Z,19.60
2024-02-23T09:26:22.228Z,19.50
2024-02-23T09:28:49.826Z,19.50
2024-02-23T09:31:17.402Z,19.50
2024-02-23T09:33:45.417Z,19.50
2024-02-23T09:36:13.046Z,19.50
2024-02-23T09:38:40.695Z,19.60
2024-02-23T09:41:08.298Z,19.60
2024-02-23T09:43:35.904Z,19.50
2024-02-23T09:46:03.477Z,19.50
2024-02-23T09:48:34.897Z,19.50
2024-02-23T09:51:02.590Z,19.50
2024-02-23T09:53:30.610Z,19.60
2024-02-23T09:55:58.462Z,19.50
2024-02-23T09:58:27.768Z,19.50
2024-02-23T10:00:55.386Z,19.60
2024-02-23T10:03:27.619Z,19.60
2024-02-23T10:05:55.309Z,19.60
2024-02-23T10:08:23.109Z,19.60
2024-02-23T10:10:51.557Z,19.60
2024-02-23T10:13:19.202Z,19.60
2024-02-23T10:16:00.195Z,19.60
2024-02-23T10:18:34.338Z,19.60
2024-02-23T10:21:02.104Z,19.60
2024-02-23T10:23:35.253Z,19.60
2024-02-23T10:26:04.829Z,19.60
2024-02-23T10:28:32.372Z,19.60
2024-02-23T10:31:02.650Z,19.60
2024-02-23T10:33:30.286Z,19.60
2024-02-23T10:35:58.362Z,19.60
2024-02-23T10:38:26.136Z,19.60
2024-02-23T10:40:53.805Z,19.60
2024-02-23T10:43:21.422Z,19.60
2024-02-23T10:45:49.047Z,19.60
2024-02-23T10:48:17.049Z,19.60
2024-02-23T10:50:45.382Z,19.60
2024-02-23T10:53:13.038Z,19.60
2024-02-23T10:55:40.618Z,19.70
2024-02-23T10:58:08.968Z,19.60
2024-02-23T11:00:36.660Z,19.70
2024-02-23T11:03:04.599Z,19.70
2024-02-23T11:05:32.369Z,19.70
2024-02-23T11:08:00.135Z,19.70
2024-02-23T11:10:29.194Z,19.70
2024-02-23T11:12:56.953Z,19.70
2024-02-23T11:15:24.491Z,19.70
2024-02-23T11:17:52.258Z,19.70
2024-02-23T11:20:30.039Z,19.70
2024-02-23T11:22:59.420Z,19.70
2024-02-23T11:25:27.466Z,19.70
2024-02-23T11:27:55.094Z,19.70
2024-02-23T11:30:22.698Z,19.70
2024-02-23T11:32:52.789Z,19.70
2024-02-23T11:35:20.786Z,19.70
2024-02-23T11:37:48.382Z,19.70
2024-02-23T11:40:16.013Z,19.70
2024-02-23T11:42:44.371Z,19.70
2024-02-23T11:45:12.488Z,19.70
2024-02-23T11:47:40.278Z,19.70
2024-02-23T11:50:08.085Z,19.70
2024-02-23T11:52:35.712Z,19.70
2024-02-23T11:55:03.577Z,19.70
2024-02-23T11:57:39.489Z,19.70
2024-02-23T12:00:11.730Z,19.70
2024-02-23T12:02:39.380Z,19.70
2024-02-23T12:05:08.171Z,19.70
2024-02-23T12:07:36.052Z,19.70
2024-02-23T12:10:04.607Z,19.70
2024-02-23T12:12:32.207Z,19.70
2024-02-23T12:15:00.185Z,19.70
2024-02-23T12:17:28.799Z,19.70
2024-02-23T12:19:56.606Z,19.70
2024-02-23T12:22:24.228Z,19.70
2024-02-23T12:24:51.830Z,19.80
2024-02-23T12:27:19.707Z,19.70
2024-02-23T12:29:47.265Z,19.70
2024-02-23T12:32:14.874Z,19.70
2024-02-23T12:34:42.503Z,19.70
2024-02-23T12:37:10.088Z,19.70
2024-02-23T12:39:37.698Z,19.70
2024-02-23T12:42:05.301Z,19.80
2024-02-23T12:44:32.904Z,19.80
2024-02-23T12:47:00.548Z,19.80
2024-02-23T12:49:28.217Z,19.80
2024-02-23T12:51:55.834Z,19.80
2024-02-23T12:54:23.385Z,19.70
2024-02-23T12:56:51.035Z,19.70
2024-02-23T12:59:19.378Z,19.70
2024-02-23T13:01:49.377Z,19.80
2024-02-23T13:04:19.034Z,19.80
2024-02-23T13:06:46.711Z,19.80
2024-02-23T13:09:15.768Z,19.70
2024-02-23T13:11:43.548Z,19.70
2024-02-23T13:14:11.501Z,19.70
2024-02-23T13:16:39.110Z,19.70
2024-02-23T13:19:06.770Z,19.70
2024-02-23T13:21:34.651Z,19.70
2024-02-23T13:24:02.218Z,19.70
2024-02-23T13:26:29.802Z,19.80
2024-02-23T13:28:58.635Z,19.80
2024-02-23T13:31:26.235Z,19.70
2024-02-23T13:33:54.005Z,19.70
2024-02-23T13:36:21.645Z,19.80
2024-02-23T13:38:49.250Z,19.80
2024-02-23T13:41:16.938Z,19.70
2024-02-23T13:43:45.014Z,19.70
2024-02-23T13:46:12.602Z,19.70
2024-02-23T13:48:40.225Z,19.70
2024-02-23T13:51:07.934Z,19.70
2024-02-23T13:53:37.408Z,19.70
2024-02-23T13:56:05.188Z,19.70
2024-02-23T13:58:33.577Z,19.70
2024-02-23T14:01:01.201Z,19.70
2024-02-23T14:03:29.085Z,19.70
2024-02-23T14:05:56.749Z,19.70
2024-02-23T14:08:24.549Z,19.70
2024-02-23T14:10:52.160Z,19.70
2024-02-23T14:13:19.718Z,19.70
2024-02-23T14:15:47.476Z,19.70
2024-02-23T14:18:15.087Z,19.70
2024-02-23T14:20:42.696Z,19.70
2024-02-23T14:23:10.338Z,19.70
2024-02-23T14:25:37.933Z,19.70
2024-02-23T14:28:05.525Z,19.70
2024-02-23T14:30:33.086Z,19.70
2024-02-23T14:33:00.766Z,19.70
2024-02-23T14:35:28.360Z,19.70
2024-02-23T14:37:56.086Z,19.70
2024-02-23T14:40:23.765Z,19.70
2024-02-23T14:42:51.312Z,19.70
2024-02-23T14:45:18.882Z,19.70
2024-02-23T14:47:46.849Z,19.60
2024-02-23T14:50:14.716Z,19.60
2024-02-23T14:52:42.497Z,19.60
2024-02-23T14:55:12.568Z,19.60
2024-02-23T14:57:40.348Z,19.60
2024-02-23T15:00:08.044Z,19.70
2024-02-23T15:02:35.692Z,19.60
2024-02-23T15:05:03.741Z,19.70
2024-02-23T15:07:31.365Z,19.60
2024-02-23T15:09:58.949Z,19.70
2024-02-23T15:12:29.148Z,19.60
2024-02-23T15:14:56.746Z,19.60
2024-02-23T15:17:24.367Z,19.60
2024-02-23T15:19:52.006Z,19.60
2024-02-23T15:22:20.792Z,19.60
2024-02-23T15:24:50.537Z,19.60
2024-02-23T15:27:18.159Z,19.70
2024-02-23T15:29:45.741Z,19.70
2024-02-23T15:32:13.297Z,19.60
2024-02-23T15:34:40.909Z,19.60
2024-02-23T15:37:08.683Z,19.60
2024-02-23T15:39:36.264Z,19.70
2024-02-23T15:42:04.242Z,19.60
2024-02-23T15:44:32.027Z,19.60
2024-02-23T15:46:59.660Z,19.60
2024-02-23T15:49:44.819Z,19.60
2024-02-23T15:52:14.973Z,19.60
2024-02-23T15:54:42.867Z,19.60
2024-02-23T15:57:10.789Z,19.60
2024-02-23T15:59:39.010Z,19.50
2024-02-23T16:02:07.981Z,19.50
2024-02-23T16:04:35.638Z,19.50
2024-02-23T16:07:03.313Z,19.50
2024-02-23T16:09:31.524Z,19.50
2024-02-23T16:11:59.568Z,19.50
2024-02-23T16:14:27.520Z,19.50
2024-02-23T16:16:55.619Z,19.50
2024-02-23T16:19:23.846Z,19.50
2024-02-23T16:21:51.668Z,19.50
2024-02-23T16:24:19.325Z,19.40
2024-02-23T16:26:47.144Z,19.40
2024-02-23T16:29:14.798Z,19.40
2024-02-23T16:31:42.405Z,19.40
2024-02-23T16:34:10.043Z,19.40
2024-02-23T16:36:37.645Z,19.40
2024-02-23T16:39:08.589Z,19.30
2024-02-23T16:41:36.403Z,19.30
2024-02-23T16:44:05.094Z,19.30
2024-02-23T16:46:32.704Z,19.40
2024-02-23T16:49:05.244Z,19.40
2024-02-23T16:51:32.851Z,19.40
2024-02-23T16:54:00.576Z,19.40
2024-02-23T16:56:28.492Z,19.40
2024-02-23T16:58:56.200Z,19.40
2024-02-23T17:01:23.843Z,19.40
2024-02-23T17:03:51.614Z,19.40
2024-02-23T17:06:19.388Z,19.40
2024-02-23T17:08:48.890Z,19.40
2024-02-23T17:11:16.778Z,19.40
2024-02-23T17:13:45.223Z,19.30
2024-02-23T17:16:13.062Z,19.40
2024-02-23T17:18:40.613Z,19.40
2024-02-23T17:21:08.383Z,19.30
2024-02-23T17:23:36.046Z,19.30
2024-02-23T17:26:05.659Z,19.30
2024-02-23T17:28:35.011Z,19.40
2024-02-23T17:31:02.623Z,19.30
2024-02-23T17:33:30.371Z,19.30
2024-02-23T17:35:58.061Z,19.30
2024-02-23T17:38:25.648Z,19.30
2024-02-23T17:40:54.373Z,19.30
2024-02-23T17:43:22.912Z,19.30
2024-02-23T17:45:50.571Z,19.30
2024-02-23T17:48:18.241Z,19.30
2024-02-23T17:50:46.063Z,19.30
2024-02-23T17:53:14.016Z,19.30
2024-02-23T17:55:41.635Z,19.30
2024-02-23T17:58:15.960Z,19.20
2024-02-23T18:00:47.531Z,19.20
2024-02-23T18:03:15.920Z,19.30
2024-02-23T18:05:44.007Z,19.30
2024-02-23T18:08:12.270Z,19.30
2024-02-23T18:10:40.037Z,19.20
2024-02-23T18:13:07.696Z,19.20
2024-02-23T18:15:35.290Z,19.20
2024-02-23T18:18:03.109Z,19.20
2024-02-23T18:20:30.846Z,19.10
2024-02-23T18:22:58.712Z,19.20
2024-02-23T18:25:26.302Z,19.20
2024-02-23T18:27:53.994Z,19.20
2024-02-23T18:30:21.720Z,19.20
2024-02-23T18:32:49.361Z,19.20
2024-02-23T18:35:17.000Z,19.20
2024-02-23T18:37:47.149Z,19.10
2024-02-23T18:40:15.779Z,19.10
2024-02-23T18:42:43.357Z,19.10
2024-02-23T18:45:10.994Z,19.10
2024-02-23T18:47:38.767Z,19.10
2024-02-23T18:50:06.546Z,19.10
2024-02-23T18:52:34.317Z,19.00
2024-02-23T18:55:02.142Z,19.10
2024-02-23T18:57:30.462Z,19.10
2024-02-23T18:59:58.227Z,19.10
2024-02-23T19:02:25.840Z,19.10
2024-02-23T19:04:53.492Z,19.10
2024-02-23T19:07:21.054Z,19.00
2024-02-23T19:09:48.675Z,19.10
2024-02-23T19:12:16.327Z,19.00
2024-02-23T19:14:44.113Z,19.10
2024-02-23T19:17:12.933Z,19.10
2024-02-23T19:19:40.553Z,19.10
2024-02-23T19:22:08.148Z,19.20
2024-02-23T19:24:35.778Z,19.20
2024-02-23T19:27:03.420Z,19.20
2024-02-23T19:29:31.020Z,19.20
2024-02-23T19:31:58.924Z,19.20
2024-02-23T19:34:26.604Z,19.20
2024-02-23T19:36:55.324Z,19.10
2024-02-23T19:39:23.270Z,19.10
2024-02-23T19:41:50.888Z,19.10
2024-02-23T19:44:18.544Z,19.10
2024-02-23T19:46:46.912Z,19.10
2024-02-23T19:49:14.825Z,19.10
2024-02-23T19:51:42.492Z,19.10
2024-02-23T19:54:10.039Z,19.10
2024-02-23T19:56:37.691Z,19.10
2024-02-23T19:59:06.566Z,19.10
2024-02-23T20:01:34.132Z,19.10
2024-02-23T20:04:02.108Z,19.10
2024-02-23T20:06:29.713Z,19.10
2024-02-23T20:08:59.738Z,19.10
2024-02-23T20:11:27.456Z,19.00
2024-02-23T20:13:55.153Z,19.00
2024-02-23T20:16:24.350Z,19.00
2024-02-23T20:18:52.103Z,19.10
2024-02-23T20:21:19.705Z,19.10
2024-02-23T20:23:47.426Z,19.00
2024-02-23T20:26:15.287Z,19.00
2024-02-23T20:28:42.894Z,19.00
2024-02-23T20:31:10.451Z,19.00
2024-02-23T20:33:38.323Z,19.00
2024-02-23T20:36:06.084Z,19.00
2024-02-23T20:38:33.679Z,19.00
2024-02-23T20:41:01.513Z,18.90
2024-02-23T20:43:29.357Z,19.00
2024-02-23T20:45:58.025Z,19.00
2024-02-23T20:48:25.923Z,18.90
2024-02-23T20:50:53.614Z,18.90
2024-02-23T20:53:21.234Z,18.90
2024-02-23T20:55:51.151Z,18.90
2024-02-23T20:58:18.999Z,18.90
2024-02-23T21:00:48.692Z,18.90
2024-02-23T21:03:16.340Z,18.90
2024-02-23T21:05:43.996Z,18.90
2024-02-23T21:08:12.431Z,18.90
2024-02-23T21:10:40.137Z,18.90
2024-02-23T21:13:07.708Z,18.90
2024-02-23T21:15:35.343Z,18.90
2024-02-23T21:18:03.112Z,18.90
2024-02-23T21:20:34.098Z,18.90
2024-02-23T21:23:01.806Z,18.80
2024-02-23T21:25:29.530Z,18.80
2024-02-23T21:27:57.134Z,18.80
2024-02-23T21:30:24.869Z,18.80
2024-02-23T21:32:52.612Z,18.80
2024-02-23T21:35:21.232Z,18.80
2024-02-23T21:37:48.855Z,18.80
2024-02-23T21:40:17.448Z,18.80
2024-02-23T21:42:45.531Z,18.80
2024-02-23T21:45:13.093Z,18.80
2024-02-23T21:47:40.713Z,18.80
2024-02-23T21:50:09.471Z,18.80
2024-02-23T21:52:38.380Z,18.70
2024-02-23T21:55:06.240Z,18.80
2024-02-23T21:57:33.848Z,18.80
2024-02-23T22:00:01.406Z,18.80
2024-02-23T22:02:30.327Z,18.80
2024-02-23T22:04:58.405Z,18.70
2024-02-23T22:07:26.027Z,18.80
2024-02-23T22:09:56.671Z,18.70
2024-02-23T22:12:24.282Z,18.70
2024-02-23T22:14:52.225Z,18.70
2024-02-23T22:17:19.829Z,18.70
2024-02-23T22:19:48.524Z,18.70
2024-02-23T22:22:16.094Z,18.70
2024-02-23T22:24:43.798Z,18.80
2024-02-23T22:27:11.370Z,18.70
2024-02-23T22:29:38.995Z,18.70
2024-02-23T22:32:07.066Z,18.70
2024-02-23T22:34:34.852Z,18.70
2024-02-23T22:37:02.718Z,18.70
2024-02-23T22:39:30.280Z,18.70
2024-02-23T22:41:57.944Z,18.70
2024-02-23T22:44:25.657Z,18.60
2024-02-23T22:46:55.646Z,18.60
2024-02-23T22:49:23.466Z,18.70
2024-02-23T22:51:51.043Z,18.60
2024-02-23T22:54:18.807Z,18.70
2024-02-23T22:56:46.396Z,18.70
2024-02-23T22:59:14.089Z,18.70
2024-02-23T23:01:41.735Z,18.60
2024-02-23T23:04:09.315Z,18.60
2024-02-23T23:06:37.446Z,18.60
2024-02-23T23:09:09.677Z,18.60
2024-02-23T23:11:38.003Z,18.60
2024-02-23T23:14:05.832Z,18.60
2024-02-23T23:16:33.497Z,18.60
2024-02-23T23:19:01.131Z,18.60
2024-02-23T23:21:30.246Z,18.60
2024-02-23T23:23:57.803Z,18.60
2024-02-23T23:26:25.475Z,18.50
2024-02-23T23:28:53.033Z,18.60
2024-02-23T23:31:20.604Z,18.60
2024-02-23T23:33:48.221Z,18.60
2024-02-23T23:36:15.880Z,18.60
2024-02-23T23:38:43.960Z,18.60
2024-02-23T23:41:11.624Z,18.50
2024-02-23T23:43:39.218Z,18.50
2024-02-23T23:46:06.815Z,18.50
2024-02-23T23:48:34.421Z,18.60
2024-02-23T23:51:02.253Z,18.60
2024-02-23T23:53:30.043Z,18.60
2024-02-23T23:55:57.650Z,18.50
2024-02-23T23:58:25.222Z,18.50
